sensor_id;sensor_type;location;lat;lon;timestamp;temperature;humidity
38428;DHT22;24211;49.980;19.776;2023-10-08T00:01:17;18.20;99.90
38428;DHT22;24211;49.980;19.776;2023-10-08T00:03:46;18.20;99.90
38428;DHT22;24211;49.980;19.776;2023-10-08T00:06:19;18.20;99.90
38428;DHT22;24211;49.980;19.776;2023-10-08T00:08:48;18.10;99.90
38428;DHT22;24211;49.980;19.776;2023-10-08T00:11:17;18.20;99.90
38428;DHT22;24211;49.980;19.776;2023-10-08T00:13:45;18.20;99.90
38428;DHT22;24211;49.980;19.776;2023-10-08T00:16:14;18.10;99.90
38428;DHT22;24211;49.980;19.776;2023-10-08T00:18:46;18.10;99.90
38428;DHT22;24211;49.980;19.776;2023-10-08T00:21:19;18.10;99.90
38428;DHT22;24211;49.980;19.776;2023-10-08T00:23:55;18.10;99.90
38428;DHT22;24211;49.980;19.776;2023-10-08T00:26:28;18.00;99.90
38428;DHT22;24211;49.980;19.776;2023-10-08T00:29:00;17.90;99.90
38428;DHT22;24211;49.980;19.776;2023-10-08T00:31:33;17.90;99.90
38428;DHT22;24211;49.980;19.776;2023-10-08T00:34:08;17.90;99.90
38428;DHT22;24211;49.980;19.776;2023-10-08T00:36:40;17.90;99.90
38428;DHT22;24211;49.980;19.776;2023-10-08T00:39:09;17.90;99.90
38428;DHT22;24211;49.980;19.776;2023-10-08T00:41:45;17.80;99.90
38428;DHT22;24211;49.980;19.776;2023-10-08T00:44:13;17.80;99.90
38428;DHT22;24211;49.980;19.776;2023-10-08T00:46:50;17.80;99.90
38428;DHT22;24211;49.980;19.776;2023-10-08T00:49:22;17.80;99.90
38428;DHT22;24211;49.980;19.776;2023-10-08T00:52:06;17.70;99.90
38428;DHT22;24211;49.980;19.776;2023-10-08T00:54:37;17.50;99.90
38428;DHT22;24211;49.980;19.776;2023-10-08T00:57:17;17.40;99.90
38428;DHT22;24211;49.980;19.776;2023-10-08T00:59:50;17.40;99.90
38428;DHT22;24211;49.980;19.776;2023-10-08T01:02:22;17.40;99.90
38428;DHT22;24211;49.980;19.776;2023-10-08T01:04:56;17.40;99.90
38428;DHT22;24211;49.980;19.776;2023-10-08T01:07:24;17.30;99.90
38428;DHT22;24211;49.980;19.776;2023-10-08T01:09:52;17.30;99.90
38428;DHT22;24211;49.980;19.776;2023-10-08T01:12:28;17.30;99.90
38428;DHT22;24211;49.980;19.776;2023-10-08T01:15:01;17.30;99.90
38428;DHT22;24211;49.980;19.776;2023-10-08T01:17:43;17.30;99.90
38428;DHT22;24211;49.980;19.776;2023-10-08T01:20:43;17.20;99.90
38428;DHT22;24211;49.980;19.776;2023-10-08T01:23:11;17.20;99.90
38428;DHT22;24211;49.980;19.776;2023-10-08T01:25:40;17.20;99.90
38428;DHT22;24211;49.980;19.776;2023-10-08T01:28:10;17.10;99.90
38428;DHT22;24211;49.980;19.776;2023-10-08T01:30:58;17.10;99.90
38428;DHT22;24211;49.980;19.776;2023-10-08T01:33:31;17.10;99.90
38428;DHT22;24211;49.980;19.776;2023-10-08T01:36:04;17.10;99.90
38428;DHT22;24211;49.980;19.776;2023-10-08T01:38:32;17.20;99.90
38428;DHT22;24211;49.980;19.776;2023-10-08T01:41:02;17.10;99.90
38428;DHT22;24211;49.980;19.776;2023-10-08T01:43:30;17.00;99.90
38428;DHT22;24211;49.980;19.776;2023-10-08T01:45:58;17.00;99.90
38428;DHT22;24211;49.980;19.776;2023-10-08T01:48:25;16.90;99.90
38428;DHT22;24211;49.980;19.776;2023-10-08T01:50:56;16.80;99.90
38428;DHT22;24211;49.980;19.776;2023-10-08T01:53:28;16.80;99.90
38428;DHT22;24211;49.980;19.776;2023-10-08T01:55:55;16.70;99.90
38428;DHT22;24211;49.980;19.776;2023-10-08T01:58:38;16.70;99.90
38428;DHT22;24211;49.980;19.776;2023-10-08T02:01:05;16.60;99.90
38428;DHT22;24211;49.980;19.776;2023-10-08T02:03:39;16.60;99.90
38428;DHT22;24211;49.980;19.776;2023-10-08T02:06:09;16.60;99.90
38428;DHT22;24211;49.980;19.776;2023-10-08T02:08:36;16.70;99.90
38428;DHT22;24211;49.980;19.776;2023-10-08T02:11:03;16.80;99.90
38428;DHT22;24211;49.980;19.776;2023-10-08T02:13:31;16.80;99.90
38428;DHT22;24211;49.980;19.776;2023-10-08T02:15:58;16.80;99.90
38428;DHT22;24211;49.980;19.776;2023-10-08T02:18:25;16.90;99.90
38428;DHT22;24211;49.980;19.776;2023-10-08T02:20:52;16.80;99.90
38428;DHT22;24211;49.980;19.776;2023-10-08T02:23:20;16.60;99.90
38428;DHT22;24211;49.980;19.776;2023-10-08T02:25:48;16.10;99.90
38428;DHT22;24211;49.980;19.776;2023-10-08T02:28:15;15.90;99.90
38428;DHT22;24211;49.980;19.776;2023-10-08T02:30:43;15.90;99.90
38428;DHT22;24211;49.980;19.776;2023-10-08T02:33:11;15.80;99.90
38428;DHT22;24211;49.980;19.776;2023-10-08T02:35:42;15.70;99.90
38428;DHT22;24211;49.980;19.776;2023-10-08T02:38:12;15.30;99.90
38428;DHT22;24211;49.980;19.776;2023-10-08T02:40:45;15.60;99.90
38428;DHT22;24211;49.980;19.776;2023-10-08T02:43:16;14.80;99.90
38428;DHT22;24211;49.980;19.776;2023-10-08T02:45:44;14.90;99.90
38428;DHT22;24211;49.980;19.776;2023-10-08T02:48:18;15.20;99.90
38428;DHT22;24211;49.980;19.776;2023-10-08T02:50:47;15.40;99.90
38428;DHT22;24211;49.980;19.776;2023-10-08T02:53:14;15.30;99.90
38428;DHT22;24211;49.980;19.776;2023-10-08T02:55:45;15.50;99.90
38428;DHT22;24211;49.980;19.776;2023-10-08T02:58:14;15.50;99.90
38428;DHT22;24211;49.980;19.776;2023-10-08T03:00:46;15.30;99.90
38428;DHT22;24211;49.980;19.776;2023-10-08T03:03:16;15.30;99.90
38428;DHT22;24211;49.980;19.776;2023-10-08T03:05:52;15.30;99.90
38428;DHT22;24211;49.980;19.776;2023-10-08T03:08:24;15.30;99.90
38428;DHT22;24211;49.980;19.776;2023-10-08T03:10:52;15.40;99.90
38428;DHT22;24211;49.980;19.776;2023-10-08T03:13:29;15.50;99.90
38428;DHT22;24211;49.980;19.776;2023-10-08T03:15:56;15.50;99.90
38428;DHT22;24211;49.980;19.776;2023-10-08T03:18:30;15.40;99.90
38428;DHT22;24211;49.980;19.776;2023-10-08T03:21:05;15.10;99.90
38428;DHT22;24211;49.980;19.776;2023-10-08T03:23:51;15.20;99.90
38428;DHT22;24211;49.980;19.776;2023-10-08T03:26:19;15.20;99.90
38428;DHT22;24211;49.980;19.776;2023-10-08T03:29:03;15.30;99.90
38428;DHT22;24211;49.980;19.776;2023-10-08T03:31:36;15.40;99.90
38428;DHT22;24211;49.980;19.776;2023-10-08T03:34:20;15.40;99.90
38428;DHT22;24211;49.980;19.776;2023-10-08T03:36:54;15.50;99.90
38428;DHT22;24211;49.980;19.776;2023-10-08T03:39:33;15.50;99.90
38428;DHT22;24211;49.980;19.776;2023-10-08T03:42:23;15.50;99.90
38428;DHT22;24211;49.980;19.776;2023-10-08T03:44:52;15.50;99.90
38428;DHT22;24211;49.980;19.776;2023-10-08T03:47:23;15.50;99.90
38428;DHT22;24211;49.980;19.776;2023-10-08T03:49:54;15.50;99.90
38428;DHT22;24211;49.980;19.776;2023-10-08T03:52:21;15.50;99.90
38428;DHT22;24211;49.980;19.776;2023-10-08T03:54:51;15.50;99.90
38428;DHT22;24211;49.980;19.776;2023-10-08T03:57:38;15.40;99.90
38428;DHT22;24211;49.980;19.776;2023-10-08T04:00:10;15.30;99.90
38428;DHT22;24211;49.980;19.776;2023-10-08T04:02:46;15.20;99.90
38428;DHT22;24211;49.980;19.776;2023-10-08T04:05:36;15.20;99.90
38428;DHT22;24211;49.980;19.776;2023-10-08T04:08:11;15.20;99.90
38428;DHT22;24211;49.980;19.776;2023-10-08T04:10:46;15.10;99.90
38428;DHT22;24211;49.980;19.776;2023-10-08T04:13:13;15.20;99.90
38428;DHT22;24211;49.980;19.776;2023-10-08T04:15:43;15.10;99.90
38428;DHT22;24211;49.980;19.776;2023-10-08T04:18:11;15.10;99.90
38428;DHT22;24211;49.980;19.776;2023-10-08T04:20:40;15.10;99.90
38428;DHT22;24211;49.980;19.776;2023-10-08T04:23:27;15.10;99.90
38428;DHT22;24211;49.980;19.776;2023-10-08T04:25:56;15.00;99.90
38428;DHT22;24211;49.980;19.776;2023-10-08T04:28:24;15.00;99.90
38428;DHT22;24211;49.980;19.776;2023-10-08T04:30:56;14.90;99.90
38428;DHT22;24211;49.980;19.776;2023-10-08T04:33:28;14.80;99.90
38428;DHT22;24211;49.980;19.776;2023-10-08T04:36:01;14.80;99.90
38428;DHT22;24211;49.980;19.776;2023-10-08T04:38:29;14.80;99.90
38428;DHT22;24211;49.980;19.776;2023-10-08T04:40:58;14.80;99.90
38428;DHT22;24211;49.980;19.776;2023-10-08T04:43:29;14.70;99.90
38428;DHT22;24211;49.980;19.776;2023-10-08T04:46:00;14.60;99.90
38428;DHT22;24211;49.980;19.776;2023-10-08T04:48:46;14.60;99.90
38428;DHT22;24211;49.980;19.776;2023-10-08T04:51:13;14.60;99.90
38428;DHT22;24211;49.980;19.776;2023-10-08T04:53:41;14.60;99.90
38428;DHT22;24211;49.980;19.776;2023-10-08T04:56:12;14.50;99.90
38428;DHT22;24211;49.980;19.776;2023-10-08T04:58:46;14.40;99.90
38428;DHT22;24211;49.980;19.776;2023-10-08T05:01:16;14.30;99.90
38428;DHT22;24211;49.980;19.776;2023-10-08T05:03:48;14.20;99.90
38428;DHT22;24211;49.980;19.776;2023-10-08T05:06:35;14.20;99.90
38428;DHT22;24211;49.980;19.776;2023-10-08T05:09:07;14.20;99.90
38428;DHT22;24211;49.980;19.776;2023-10-08T05:11:50;14.30;99.90
38428;DHT22;24211;49.980;19.776;2023-10-08T05:14:23;14.20;99.90
38428;DHT22;24211;49.980;19.776;2023-10-08T05:17:08;14.00;99.90
38428;DHT22;24211;49.980;19.776;2023-10-08T05:19:49;14.00;99.90
38428;DHT22;24211;49.980;19.776;2023-10-08T05:22:17;14.00;99.90
38428;DHT22;24211;49.980;19.776;2023-10-08T05:24:49;14.00;99.90
38428;DHT22;24211;49.980;19.776;2023-10-08T05:27:40;14.00;99.90
38428;DHT22;24211;49.980;19.776;2023-10-08T05:30:27;13.90;99.90
38428;DHT22;24211;49.980;19.776;2023-10-08T05:33:09;13.90;99.90
38428;DHT22;24211;49.980;19.776;2023-10-08T05:35:52;13.90;99.90
38428;DHT22;24211;49.980;19.776;2023-10-08T05:38:37;13.90;99.90
38428;DHT22;24211;49.980;19.776;2023-10-08T05:41:05;13.90;99.90
38428;DHT22;24211;49.980;19.776;2023-10-08T05:43:44;13.90;99.90
38428;DHT22;24211;49.980;19.776;2023-10-08T05:46:13;13.90;99.90
38428;DHT22;24211;49.980;19.776;2023-10-08T05:48:59;13.90;99.90
38428;DHT22;24211;49.980;19.776;2023-10-08T05:51:43;13.90;99.90
38428;DHT22;24211;49.980;19.776;2023-10-08T05:54:26;13.80;99.90
38428;DHT22;24211;49.980;19.776;2023-10-08T05:56:54;13.80;99.90
38428;DHT22;24211;49.980;19.776;2023-10-08T05:59:52;13.80;99.90
38428;DHT22;24211;49.980;19.776;2023-10-08T06:02:25;13.80;99.90
38428;DHT22;24211;49.980;19.776;2023-10-08T06:05:09;13.90;99.90
38428;DHT22;24211;49.980;19.776;2023-10-08T06:07:50;13.90;99.90
38428;DHT22;24211;49.980;19.776;2023-10-08T06:10:26;13.90;99.90
38428;DHT22;24211;49.980;19.776;2023-10-08T06:13:04;13.80;99.90
38428;DHT22;24211;49.980;19.776;2023-10-08T06:15:42;13.80;99.90
38428;DHT22;24211;49.980;19.776;2023-10-08T06:18:28;13.80;99.90
38428;DHT22;24211;49.980;19.776;2023-10-08T06:21:00;13.70;99.90
38428;DHT22;24211;49.980;19.776;2023-10-08T06:23:38;13.80;99.90
38428;DHT22;24211;49.980;19.776;2023-10-08T06:26:09;13.80;99.90
38428;DHT22;24211;49.980;19.776;2023-10-08T06:28:38;13.80;99.90
38428;DHT22;24211;49.980;19.776;2023-10-08T06:31:06;13.70;99.90
38428;DHT22;24211;49.980;19.776;2023-10-08T06:33:39;13.70;99.90
38428;DHT22;24211;49.980;19.776;2023-10-08T06:36:09;13.70;99.90
38428;DHT22;24211;49.980;19.776;2023-10-08T06:38:50;13.70;99.90
38428;DHT22;24211;49.980;19.776;2023-10-08T06:41:19;13.70;99.90
38428;DHT22;24211;49.980;19.776;2023-10-08T06:44:06;13.70;99.90
38428;DHT22;24211;49.980;19.776;2023-10-08T06:49:47;13.60;99.90
38428;DHT22;24211;49.980;19.776;2023-10-08T06:52:15;13.60;99.90
38428;DHT22;24211;49.980;19.776;2023-10-08T06:54:42;13.60;99.90
38428;DHT22;24211;49.980;19.776;2023-10-08T06:57:09;13.60;99.90
38428;DHT22;24211;49.980;19.776;2023-10-08T06:59:41;13.60;99.90
38428;DHT22;24211;49.980;19.776;2023-10-08T07:02:10;13.60;99.90
38428;DHT22;24211;49.980;19.776;2023-10-08T07:04:37;13.60;99.90
38428;DHT22;24211;49.980;19.776;2023-10-08T07:07:07;13.60;99.90
38428;DHT22;24211;49.980;19.776;2023-10-08T07:09:36;13.50;99.90
38428;DHT22;24211;49.980;19.776;2023-10-08T07:12:04;13.50;99.90
38428;DHT22;24211;49.980;19.776;2023-10-08T07:14:40;13.40;99.90
38428;DHT22;24211;49.980;19.776;2023-10-08T07:17:09;13.30;99.90
38428;DHT22;24211;49.980;19.776;2023-10-08T07:19:47;13.30;99.90
38428;DHT22;24211;49.980;19.776;2023-10-08T07:22:17;13.30;99.90
38428;DHT22;24211;49.980;19.776;2023-10-08T07:24:49;13.30;99.90
38428;DHT22;24211;49.980;19.776;2023-10-08T07:27:18;13.20;99.90
38428;DHT22;24211;49.980;19.776;2023-10-08T07:29:51;13.20;99.90
38428;DHT22;24211;49.980;19.776;2023-10-08T07:32:24;13.20;99.90
38428;DHT22;24211;49.980;19.776;2023-10-08T07:34:53;13.10;99.90
38428;DHT22;24211;49.980;19.776;2023-10-08T07:37:25;13.10;99.90
38428;DHT22;24211;49.980;19.776;2023-10-08T07:39:53;13.10;99.90
38428;DHT22;24211;49.980;19.776;2023-10-08T07:42:22;13.10;99.90
38428;DHT22;24211;49.980;19.776;2023-10-08T07:44:49;13.10;99.90
38428;DHT22;24211;49.980;19.776;2023-10-08T07:47:21;13.10;99.90
38428;DHT22;24211;49.980;19.776;2023-10-08T07:49:49;13.10;99.90
38428;DHT22;24211;49.980;19.776;2023-10-08T07:52:19;13.00;99.90
38428;DHT22;24211;49.980;19.776;2023-10-08T07:54:46;13.10;99.90
38428;DHT22;24211;49.980;19.776;2023-10-08T07:57:14;13.10;99.90
38428;DHT22;24211;49.980;19.776;2023-10-08T07:59:46;13.10;99.90
38428;DHT22;24211;49.980;19.776;2023-10-08T08:02:16;13.10;99.90
38428;DHT22;24211;49.980;19.776;2023-10-08T08:04:45;13.10;99.90
38428;DHT22;24211;49.980;19.776;2023-10-08T08:07:14;13.10;99.90
38428;DHT22;24211;49.980;19.776;2023-10-08T08:09:44;13.30;99.90
38428;DHT22;24211;49.980;19.776;2023-10-08T08:12:19;13.30;99.90
38428;DHT22;24211;49.980;19.776;2023-10-08T08:14:48;13.40;99.90
38428;DHT22;24211;49.980;19.776;2023-10-08T08:17:17;13.50;99.90
38428;DHT22;24211;49.980;19.776;2023-10-08T08:19:49;13.50;99.90
38428;DHT22;24211;49.980;19.776;2023-10-08T08:22:21;13.60;99.90
38428;DHT22;24211;49.980;19.776;2023-10-08T08:24:54;13.70;99.90
38428;DHT22;24211;49.980;19.776;2023-10-08T08:27:33;13.70;99.90
38428;DHT22;24211;49.980;19.776;2023-10-08T08:30:01;13.80;99.90
38428;DHT22;24211;49.980;19.776;2023-10-08T08:32:38;13.80;99.90
38428;DHT22;24211;49.980;19.776;2023-10-08T08:35:12;13.80;99.90
38428;DHT22;24211;49.980;19.776;2023-10-08T08:37:44;14.00;99.90
38428;DHT22;24211;49.980;19.776;2023-10-08T08:40:13;14.00;99.90
38428;DHT22;24211;49.980;19.776;2023-10-08T08:42:52;14.10;99.90
38428;DHT22;24211;49.980;19.776;2023-10-08T08:45:21;14.30;99.90
38428;DHT22;24211;49.980;19.776;2023-10-08T08:47:50;14.40;99.90
38428;DHT22;24211;49.980;19.776;2023-10-08T08:50:19;14.50;99.90
38428;DHT22;24211;49.980;19.776;2023-10-08T08:52:49;14.50;99.90
38428;DHT22;24211;49.980;19.776;2023-10-08T08:55:18;14.50;99.90
38428;DHT22;24211;49.980;19.776;2023-10-08T08:57:49;14.50;99.90
38428;DHT22;24211;49.980;19.776;2023-10-08T09:00:20;14.50;99.90
38428;DHT22;24211;49.980;19.776;2023-10-08T09:02:48;14.50;99.90
38428;DHT22;24211;49.980;19.776;2023-10-08T09:05:17;14.60;99.90
38428;DHT22;24211;49.980;19.776;2023-10-08T09:08:04;14.50;99.90
38428;DHT22;24211;49.980;19.776;2023-10-08T09:10:35;14.50;99.90
38428;DHT22;24211;49.980;19.776;2023-10-08T09:13:06;14.70;99.90
38428;DHT22;24211;49.980;19.776;2023-10-08T09:15:36;14.90;99.90
38428;DHT22;24211;49.980;19.776;2023-10-08T09:18:04;14.80;99.90
38428;DHT22;24211;49.980;19.776;2023-10-08T09:20:36;14.60;99.90
38428;DHT22;24211;49.980;19.776;2023-10-08T09:23:15;14.60;99.90
38428;DHT22;24211;49.980;19.776;2023-10-08T09:25:46;14.60;99.90
38428;DHT22;24211;49.980;19.776;2023-10-08T09:28:31;14.60;99.90
38428;DHT22;24211;49.980;19.776;2023-10-08T09:31:03;14.90;99.90
38428;DHT22;24211;49.980;19.776;2023-10-08T09:33:32;15.20;99.90
38428;DHT22;24211;49.980;19.776;2023-10-08T09:35:59;15.20;99.90
38428;DHT22;24211;49.980;19.776;2023-10-08T09:38:29;14.90;99.90
38428;DHT22;24211;49.980;19.776;2023-10-08T09:40:58;15.00;99.90
38428;DHT22;24211;49.980;19.776;2023-10-08T09:43:30;15.10;99.90
38428;DHT22;24211;49.980;19.776;2023-10-08T09:46:11;15.00;99.90
38428;DHT22;24211;49.980;19.776;2023-10-08T09:48:51;15.20;99.90
38428;DHT22;24211;49.980;19.776;2023-10-08T09:51:23;15.30;99.90
38428;DHT22;24211;49.980;19.776;2023-10-08T09:53:58;15.40;99.90
38428;DHT22;24211;49.980;19.776;2023-10-08T09:56:37;15.50;99.90
38428;DHT22;24211;49.980;19.776;2023-10-08T09:59:07;15.70;99.90
38428;DHT22;24211;49.980;19.776;2023-10-08T10:01:39;15.80;99.90
38428;DHT22;24211;49.980;19.776;2023-10-08T10:04:09;16.00;99.90
38428;DHT22;24211;49.980;19.776;2023-10-08T10:06:38;16.20;99.90
38428;DHT22;24211;49.980;19.776;2023-10-08T10:09:20;16.40;99.90
38428;DHT22;24211;49.980;19.776;2023-10-08T10:11:49;16.70;99.90
38428;DHT22;24211;49.980;19.776;2023-10-08T10:14:23;16.70;99.90
38428;DHT22;24211;49.980;19.776;2023-10-08T10:17:15;16.60;99.90
38428;DHT22;24211;49.980;19.776;2023-10-08T10:20:08;16.60;99.90
38428;DHT22;24211;49.980;19.776;2023-10-08T10:22:40;16.40;99.90
38428;DHT22;24211;49.980;19.776;2023-10-08T10:25:11;16.20;99.90
38428;DHT22;24211;49.980;19.776;2023-10-08T10:30:18;15.70;99.90
38428;DHT22;24211;49.980;19.776;2023-10-08T10:32:53;15.70;99.90
38428;DHT22;24211;49.980;19.776;2023-10-08T10:35:21;15.50;99.90
38428;DHT22;24211;49.980;19.776;2023-10-08T10:37:51;15.70;99.90
38428;DHT22;24211;49.980;19.776;2023-10-08T10:40:23;15.70;99.90
38428;DHT22;24211;49.980;19.776;2023-10-08T10:43:07;15.80;99.90
38428;DHT22;24211;49.980;19.776;2023-10-08T10:45:36;15.80;99.90
38428;DHT22;24211;49.980;19.776;2023-10-08T10:48:05;16.00;99.90
38428;DHT22;24211;49.980;19.776;2023-10-08T10:50:50;16.00;99.90
38428;DHT22;24211;49.980;19.776;2023-10-08T10:53:38;16.20;99.90
38428;DHT22;24211;49.980;19.776;2023-10-08T10:56:24;16.40;99.90
38428;DHT22;24211;49.980;19.776;2023-10-08T10:59:01;16.60;99.90
38428;DHT22;24211;49.980;19.776;2023-10-08T11:01:49;16.80;99.90
38428;DHT22;24211;49.980;19.776;2023-10-08T11:04:19;17.00;99.90
38428;DHT22;24211;49.980;19.776;2023-10-08T11:06:57;17.00;99.90
38428;DHT22;24211;49.980;19.776;2023-10-08T11:09:26;17.00;99.90
38428;DHT22;24211;49.980;19.776;2023-10-08T11:12:06;17.20;99.90
38428;DHT22;24211;49.980;19.776;2023-10-08T11:14:42;17.30;99.90
38428;DHT22;24211;49.980;19.776;2023-10-08T11:17:15;17.30;99.90
38428;DHT22;24211;49.980;19.776;2023-10-08T11:19:43;17.50;99.90
38428;DHT22;24211;49.980;19.776;2023-10-08T11:22:14;17.70;99.90
38428;DHT22;24211;49.980;19.776;2023-10-08T11:24:49;17.70;99.90
38428;DHT22;24211;49.980;19.776;2023-10-08T11:27:21;17.80;99.90
38428;DHT22;24211;49.980;19.776;2023-10-08T11:30:06;17.80;99.90
38428;DHT22;24211;49.980;19.776;2023-10-08T11:32:39;18.00;99.90
38428;DHT22;24211;49.980;19.776;2023-10-08T11:35:14;18.20;99.90
38428;DHT22;24211;49.980;19.776;2023-10-08T11:37:47;18.40;99.90
38428;DHT22;24211;49.980;19.776;2023-10-08T11:40:22;18.40;99.50
38428;DHT22;24211;49.980;19.776;2023-10-08T11:42:56;18.50;98.20
38428;DHT22;24211;49.980;19.776;2023-10-08T11:45:26;18.60;97.80
38428;DHT22;24211;49.980;19.776;2023-10-08T11:47:54;18.70;98.30
38428;DHT22;24211;49.980;19.776;2023-10-08T11:50:29;18.70;97.00
38428;DHT22;24211;49.980;19.776;2023-10-08T11:53:01;18.50;96.30
38428;DHT22;24211;49.980;19.776;2023-10-08T11:55:31;18.40;96.20
38428;DHT22;24211;49.980;19.776;2023-10-08T11:58:05;18.20;96.70
38428;DHT22;24211;49.980;19.776;2023-10-08T12:00:44;18.10;97.00
38428;DHT22;24211;49.980;19.776;2023-10-08T12:03:15;18.10;96.90
38428;DHT22;24211;49.980;19.776;2023-10-08T12:05:48;18.00;96.90
38428;DHT22;24211;49.980;19.776;2023-10-08T12:08:18;17.60;96.20
38428;DHT22;24211;49.980;19.776;2023-10-08T12:10:49;17.30;96.30
38428;DHT22;24211;49.980;19.776;2023-10-08T12:13:22;17.20;96.50
38428;DHT22;24211;49.980;19.776;2023-10-08T12:15:55;17.30;96.60
38428;DHT22;24211;49.980;19.776;2023-10-08T12:18:34;17.20;96.60
38428;DHT22;24211;49.980;19.776;2023-10-08T12:21:08;17.30;96.10
38428;DHT22;24211;49.980;19.776;2023-10-08T12:23:42;17.40;96.60
38428;DHT22;24211;49.980;19.776;2023-10-08T12:26:18;17.40;95.80
38428;DHT22;24211;49.980;19.776;2023-10-08T12:28:49;17.40;95.50
38428;DHT22;24211;49.980;19.776;2023-10-08T12:31:18;17.60;95.10
38428;DHT22;24211;49.980;19.776;2023-10-08T12:33:52;17.80;94.30
38428;DHT22;24211;49.980;19.776;2023-10-08T12:36:21;17.70;93.80
38428;DHT22;24211;49.980;19.776;2023-10-08T12:38:50;17.70;93.60
38428;DHT22;24211;49.980;19.776;2023-10-08T12:41:25;17.70;93.40
38428;DHT22;24211;49.980;19.776;2023-10-08T12:43:58;17.50;93.70
38428;DHT22;24211;49.980;19.776;2023-10-08T12:46:26;17.50;94.30
38428;DHT22;24211;49.980;19.776;2023-10-08T12:48:54;17.50;94.20
38428;DHT22;24211;49.980;19.776;2023-10-08T12:51:28;17.60;94.30
38428;DHT22;24211;49.980;19.776;2023-10-08T12:54:01;17.60;94.10
38428;DHT22;24211;49.980;19.776;2023-10-08T12:56:38;17.70;94.30
38428;DHT22;24211;49.980;19.776;2023-10-08T12:59:12;17.30;94.50
38428;DHT22;24211;49.980;19.776;2023-10-08T13:01:48;17.30;95.00
38428;DHT22;24211;49.980;19.776;2023-10-08T13:04:19;17.30;94.80
38428;DHT22;24211;49.980;19.776;2023-10-08T13:06:56;17.10;94.20
38428;DHT22;24211;49.980;19.776;2023-10-08T13:09:28;17.10;93.20
38428;DHT22;24211;49.980;19.776;2023-10-08T13:12:05;17.10;92.90
38428;DHT22;24211;49.980;19.776;2023-10-08T13:14:32;17.20;92.90
38428;DHT22;24211;49.980;19.776;2023-10-08T13:17:02;17.30;92.60
38428;DHT22;24211;49.980;19.776;2023-10-08T13:19:30;17.20;92.30
38428;DHT22;24211;49.980;19.776;2023-10-08T13:22:02;17.20;92.50
38428;DHT22;24211;49.980;19.776;2023-10-08T13:24:34;17.10;93.00
38428;DHT22;24211;49.980;19.776;2023-10-08T13:27:02;17.10;92.30
38428;DHT22;24211;49.980;19.776;2023-10-08T13:29:34;17.00;92.40
38428;DHT22;24211;49.980;19.776;2023-10-08T13:32:01;17.20;93.00
38428;DHT22;24211;49.980;19.776;2023-10-08T13:34:28;17.20;93.20
38428;DHT22;24211;49.980;19.776;2023-10-08T13:36:56;17.00;93.80
38428;DHT22;24211;49.980;19.776;2023-10-08T13:39:23;16.80;93.80
38428;DHT22;24211;49.980;19.776;2023-10-08T13:41:51;16.60;94.20
38428;DHT22;24211;49.980;19.776;2023-10-08T13:44:20;16.40;94.40
38428;DHT22;24211;49.980;19.776;2023-10-08T13:46:57;16.20;94.30
38428;DHT22;24211;49.980;19.776;2023-10-08T13:49:27;16.00;94.60
38428;DHT22;24211;49.980;19.776;2023-10-08T13:51:54;15.90;94.80
38428;DHT22;24211;49.980;19.776;2023-10-08T13:54:24;15.90;95.30
38428;DHT22;24211;49.980;19.776;2023-10-08T13:57:02;15.80;95.50
38428;DHT22;24211;49.980;19.776;2023-10-08T13:59:30;15.60;95.30
38428;DHT22;24211;49.980;19.776;2023-10-08T14:01:59;15.50;95.70
38428;DHT22;24211;49.980;19.776;2023-10-08T14:04:29;15.40;95.60
38428;DHT22;24211;49.980;19.776;2023-10-08T14:06:58;15.30;95.80
38428;DHT22;24211;49.980;19.776;2023-10-08T14:09:25;15.00;95.70
38428;DHT22;24211;49.980;19.776;2023-10-08T14:12:04;14.90;95.80
38428;DHT22;24211;49.980;19.776;2023-10-08T14:14:34;14.80;95.90
38428;DHT22;24211;49.980;19.776;2023-10-08T14:17:02;14.70;95.80
38428;DHT22;24211;49.980;19.776;2023-10-08T14:19:36;14.50;95.70
38428;DHT22;24211;49.980;19.776;2023-10-08T14:22:14;14.30;95.50
38428;DHT22;24211;49.980;19.776;2023-10-08T14:24:43;14.20;95.70
38428;DHT22;24211;49.980;19.776;2023-10-08T14:27:13;14.20;95.90
38428;DHT22;24211;49.980;19.776;2023-10-08T14:29:43;14.20;96.20
38428;DHT22;24211;49.980;19.776;2023-10-08T14:32:14;14.20;96.20
38428;DHT22;24211;49.980;19.776;2023-10-08T14:34:43;14.10;96.30
38428;DHT22;24211;49.980;19.776;2023-10-08T14:37:10;14.10;96.60
38428;DHT22;24211;49.980;19.776;2023-10-08T14:39:56;14.00;96.60
38428;DHT22;24211;49.980;19.776;2023-10-08T14:42:42;13.90;96.80
38428;DHT22;24211;49.980;19.776;2023-10-08T14:45:34;13.80;96.30
38428;DHT22;24211;49.980;19.776;2023-10-08T14:48:03;13.60;96.20
38428;DHT22;24211;49.980;19.776;2023-10-08T14:50:35;13.50;96.40
38428;DHT22;24211;49.980;19.776;2023-10-08T14:53:02;13.60;96.60
38428;DHT22;24211;49.980;19.776;2023-10-08T14:55:33;13.60;97.00
38428;DHT22;24211;49.980;19.776;2023-10-08T14:58:07;13.70;96.90
38428;DHT22;24211;49.980;19.776;2023-10-08T15:00:37;13.60;96.90
38428;DHT22;24211;49.980;19.776;2023-10-08T15:03:06;13.60;97.30
38428;DHT22;24211;49.980;19.776;2023-10-08T15:05:34;13.60;97.10
38428;DHT22;24211;49.980;19.776;2023-10-08T15:08:04;13.40;97.30
38428;DHT22;24211;49.980;19.776;2023-10-08T15:10:37;13.40;97.40
38428;DHT22;24211;49.980;19.776;2023-10-08T15:13:05;13.40;97.40
38428;DHT22;24211;49.980;19.776;2023-10-08T15:15:35;13.40;97.60
38428;DHT22;24211;49.980;19.776;2023-10-08T15:18:03;13.20;97.50
38428;DHT22;24211;49.980;19.776;2023-10-08T15:20:32;13.10;97.50
38428;DHT22;24211;49.980;19.776;2023-10-08T15:23:00;13.00;97.40
38428;DHT22;24211;49.980;19.776;2023-10-08T15:25:28;13.10;97.50
38428;DHT22;24211;49.980;19.776;2023-10-08T15:27:55;13.10;97.70
38428;DHT22;24211;49.980;19.776;2023-10-08T15:30:23;13.10;97.90
38428;DHT22;24211;49.980;19.776;2023-10-08T15:32:52;13.10;97.90
38428;DHT22;24211;49.980;19.776;2023-10-08T15:35:21;13.10;98.00
38428;DHT22;24211;49.980;19.776;2023-10-08T15:37:52;13.10;98.20
38428;DHT22;24211;49.980;19.776;2023-10-08T15:40:19;13.00;98.10
38428;DHT22;24211;49.980;19.776;2023-10-08T15:42:50;13.10;98.50
38428;DHT22;24211;49.980;19.776;2023-10-08T15:45:19;13.10;98.60
38428;DHT22;24211;49.980;19.776;2023-10-08T15:47:48;13.10;98.60
38428;DHT22;24211;49.980;19.776;2023-10-08T15:50:19;13.10;98.70
38428;DHT22;24211;49.980;19.776;2023-10-08T15:52:49;13.00;98.80
38428;DHT22;24211;49.980;19.776;2023-10-08T15:55:17;12.90;98.70